createdAt,value
2019-04-27T00:01:10.563Z,100040.28
2019-04-27T00:03:43.254Z,100056.84
2019-04-27T00:06:16.944Z,100056.77
2019-04-27T00:08:49.849Z,100062.42
2019-04-27T00:11:23.361Z,100067.57
2019-04-27T00:13:54.850Z,100058.76
2019-04-27T00:16:27.938Z,100060.42
2019-04-27T00:19:03.768Z,100066.94
2019-04-27T00:21:37.027Z,100074.77
2019-04-27T00:24:09.280Z,100068.16
2019-04-27T00:26:40.636Z,100069.88
2019-04-27T00:29:11.755Z,100073.39
2019-04-27T00:31:43.489Z,100075.55
2019-04-27T00:34:15.385Z,100081.62
2019-04-27T00:36:48.442Z,100070.69
2019-04-27T00:39:23.140Z,100067.55
2019-04-27T00:41:54.807Z,100068.78
2019-04-27T00:44:26.232Z,100078.80
2019-04-27T00:46:57.611Z,100069.59
2019-04-27T00:49:29.085Z,100080.95
2019-04-27T00:52:00.525Z,100092.27
2019-04-27T00:54:33.879Z,100099.21
2019-04-27T00:57:06.366Z,100102.41
2019-04-27T00:59:39.472Z,100116.83
2019-04-27T01:02:13.445Z,100117.52
2019-04-27T01:04:45.623Z,100114.84
2019-04-27T01:07:16.812Z,100118.79
2019-04-27T01:09:48.056Z,100129.30
2019-04-27T01:12:21.691Z,100144.53
2019-04-27T01:14:53.594Z,100146.95
2019-04-27T01:17:26.507Z,100148.06
2019-04-27T01:19:57.591Z,100149.14
2019-04-27T01:22:28.975Z,100155.11
2019-04-27T01:25:01.385Z,100159.72
2019-04-27T01:27:32.090Z,100148.58
2019-04-27T01:30:06.383Z,100139.88
2019-04-27T01:32:39.213Z,100151.76
2019-04-27T01:35:11.056Z,100156.03
2019-04-27T01:37:41.864Z,100155.10
2019-04-27T01:40:12.080Z,100157.47
2019-04-27T01:42:42.369Z,100158.84
2019-04-27T01:45:13.337Z,100161.15
2019-04-27T01:47:44.510Z,100162.69
2019-04-27T01:50:15.790Z,100162.11
2019-04-27T01:52:48.570Z,100172.75
2019-04-27T01:55:19.921Z,100177.48
2019-04-27T01:57:51.775Z,100178.97
2019-04-27T02:00:27.503Z,100186.72
2019-04-27T02:03:01.005Z,100193.70
2019-04-27T02:05:32.476Z,100204.55
2019-04-27T02:08:03.925Z,100191.66
2019-04-27T02:10:34.786Z,100206.45
2019-04-27T02:13:06.379Z,100223.58
2019-04-27T02:15:36.668Z,100217.45
2019-04-27T02:18:09.341Z,100222.10
2019-04-27T02:20:40.240Z,100217.36
2019-04-27T02:23:11.814Z,100219.98
2019-04-27T02:25:43.567Z,100224.22
2019-04-27T02:28:16.344Z,100227.72
2019-04-27T02:30:49.866Z,100222.69
2019-04-27T02:33:23.321Z,100229.06
2019-04-27T02:35:53.206Z,100227.22
2019-04-27T02:38:23.239Z,100222.22
2019-04-27T02:40:59.575Z,100223.77
2019-04-27T02:43:31.841Z,100221.95
2019-04-27T02:46:03.167Z,100232.44
2019-04-27T02:48:34.380Z,100230.98
2019-04-27T02:51:06.997Z,100229.30
2019-04-27T02:53:40.314Z,100231.00
2019-04-27T02:56:11.593Z,100231.56
2019-04-27T02:58:42.951Z,100229.31
2019-04-27T03:01:14.046Z,100236.73
2019-04-27T03:03:45.164Z,100244.36
2019-04-27T03:06:16.995Z,100245.67
2019-04-27T03:08:52.757Z,100246.87
2019-04-27T03:11:23.477Z,100245.70
2019-04-27T03:13:59.669Z,100256.74
2019-04-27T03:16:31.584Z,100255.02
2019-04-27T03:19:16.751Z,100265.68
2019-04-27T03:21:39.613Z,100265.78
2019-04-27T03:24:11.112Z,100267.87
2019-04-27T03:26:43.579Z,100271.80
2019-04-27T03:29:14.819Z,100268.24
2019-04-27T03:31:47.299Z,100271.13
2019-04-27T03:34:22.206Z,100255.55
2019-04-27T03:36:52.373Z,100232.39
2019-04-27T03:39:23.716Z,100256.72
2019-04-27T03:41:55.196Z,100256.70
2019-04-27T03:44:26.554Z,100259.50
2019-04-27T03:46:59.559Z,100266.94
2019-04-27T03:49:37.765Z,100259.82
2019-04-27T03:52:06.294Z,100272.06
2019-04-27T03:54:40.139Z,100266.91
2019-04-27T03:57:13.110Z,100271.72
2019-04-27T03:59:46.211Z,100271.66
2019-04-27T04:02:19.787Z,100264.37
2019-04-27T04:04:51.744Z,100269.12
2019-04-27T04:07:23.277Z,100279.66
2019-04-27T04:09:55.098Z,100283.05
2019-04-27T04:12:30.251Z,100281.66
2019-04-27T04:15:01.764Z,100297.92
2019-04-27T04:17:34.547Z,100295.55
2019-04-27T04:20:10.088Z,100304.73
2019-04-27T04:22:40.873Z,100308.73
2019-04-27T04:25:12.333Z,100307.86
2019-04-27T04:27:43.549Z,100306.63
2019-04-27T04:30:15.120Z,100299.86
2019-04-27T04:32:46.070Z,100295.55
2019-04-27T04:35:21.866Z,100293.02
2019-04-27T04:37:53.643Z,100295.55
2019-04-27T04:40:26.800Z,100302.13
2019-04-27T04:43:03.177Z,100300.97
2019-04-27T04:45:35.422Z,100304.58
2019-04-27T04:48:09.800Z,100312.35
2019-04-27T04:50:40.922Z,100322.98
2019-04-27T04:53:12.741Z,100330.06
2019-04-27T04:55:44.713Z,100326.22
2019-04-27T04:58:16.087Z,100331.89
2019-04-27T05:00:50.191Z,100335.76
2019-04-27T05:03:22.002Z,100343.14
2019-04-27T05:05:53.381Z,100344.05
2019-04-27T05:08:24.840Z,100346.22
2019-04-27T05:10:56.150Z,100354.50
2019-04-27T05:13:29.189Z,100349.20
2019-04-27T05:16:02.260Z,100342.39
2019-04-27T05:18:35.022Z,100344.81
2019-04-27T05:21:08.817Z,100338.55
2019-04-27T05:23:40.393Z,100336.19
2019-04-27T05:26:11.833Z,100342.80
2019-04-27T05:28:43.275Z,100341.17
2019-04-27T05:31:14.668Z,100349.80
2019-04-27T05:33:46.738Z,100351.63
2019-04-27T05:36:19.278Z,100353.82
2019-04-27T05:38:50.470Z,100357.27
2019-04-27T05:41:21.870Z,100362.67
2019-04-27T05:43:54.601Z,100368.42
2019-04-27T05:46:31.268Z,100372.47
2019-04-27T05:49:06.004Z,100371.05
2019-04-27T05:51:37.097Z,100375.30
2019-04-27T05:54:09.055Z,100374.30
2019-04-27T05:56:40.709Z,100372.77
2019-04-27T05:59:14.547Z,100390.25
2019-04-27T06:01:44.879Z,100388.30
2019-04-27T06:04:16.922Z,100385.80
2019-04-27T06:06:49.886Z,100390.59
2019-04-27T06:09:22.712Z,100391.78
2019-04-27T06:11:54.088Z,100392.13
2019-04-27T06:14:25.447Z,100396.50
2019-04-27T06:16:59.643Z,100389.32
2019-04-27T06:19:30.866Z,100386.22
2019-04-27T06:22:02.182Z,100385.73
2019-04-27T06:24:33.628Z,100389.17
2019-04-27T06:27:05.141Z,100394.75
2019-04-27T06:29:36.796Z,100397.52
2019-04-27T06:32:09.034Z,100401.36
2019-04-27T06:34:41.413Z,100408.42
2019-04-27T06:37:13.751Z,100413.13
2019-04-27T06:39:45.157Z,100417.78
2019-04-27T06:42:18.718Z,100414.53
2019-04-27T06:44:49.536Z,100428.22
2019-04-27T06:47:22.448Z,100430.34
2019-04-27T06:49:53.935Z,100436.45
2019-04-27T06:52:25.501Z,100437.36
2019-04-27T06:54:56.734Z,100451.43
2019-04-27T06:57:30.700Z,100447.05
2019-04-27T07:00:02.388Z,100458.40
2019-04-27T07:02:35.576Z,100452.75
2019-04-27T07:05:08.972Z,100458.54
2019-04-27T07:07:40.625Z,100456.56
2019-04-27T07:10:13.752Z,100456.28
2019-04-27T07:12:45.198Z,100460.73
2019-04-27T07:15:22.197Z,100458.75
2019-04-27T07:18:02.573Z,100458.31
2019-04-27T07:20:35.538Z,100461.89
2019-04-27T07:23:07.394Z,100475.00
2019-04-27T07:25:40.115Z,100476.88
2019-04-27T07:28:11.874Z,100468.82
2019-04-27T07:30:43.312Z,100458.10
2019-04-27T07:33:14.551Z,100464.44
2019-04-27T07:35:45.992Z,100472.45
2019-04-27T07:38:19.147Z,100466.95
2019-04-27T07:40:50.456Z,100471.86
2019-04-27T07:43:23.080Z,100477.41
2019-04-27T07:45:54.153Z,100494.09
2019-04-27T07:48:25.335Z,100487.28
2019-04-27T07:50:56.959Z,100493.39
2019-04-27T07:53:29.170Z,100490.88
2019-04-27T07:56:00.670Z,100488.20
2019-04-27T07:58:31.921Z,100485.47
2019-04-27T08:01:03.181Z,100485.16
2019-04-27T08:03:34.319Z,100486.36
2019-04-27T08:06:10.825Z,100490.81
2019-04-27T08:08:42.473Z,100492.39
2019-04-27T08:11:13.720Z,100503.78
2019-04-27T08:13:45.463Z,100508.83
2019-04-27T08:16:18.362Z,100504.80
2019-04-27T08:18:52.502Z,100509.70
2019-04-27T08:21:24.255Z,100502.67
2019-04-27T08:23:56.150Z,100504.39
2019-04-27T08:26:28.918Z,100517.15
2019-04-27T08:29:01.871Z,100525.11
2019-04-27T08:31:43.738Z,100524.09
2019-04-27T08:34:16.439Z,100519.86
2019-04-27T08:36:47.877Z,100520.48
2019-04-27T08:39:19.111Z,100530.76
2019-04-27T08:41:50.438Z,100520.59
2019-04-27T08:44:22.431Z,100529.72
2019-04-27T08:46:55.151Z,100531.95
2019-04-27T08:49:29.367Z,100526.85
2019-04-27T08:52:01.981Z,100528.48
2019-04-27T08:54:33.471Z,100536.23
2019-04-27T08:57:05.080Z,100542.41
2019-04-27T08:59:36.673Z,100547.36
2019-04-27T09:02:08.954Z,100552.89
2019-04-27T09:04:40.443Z,100555.78
2019-04-27T09:07:13.781Z,100558.02
2019-04-27T09:09:49.707Z,100553.08
2019-04-27T09:12:22.745Z,100554.09
2019-04-27T09:14:55.741Z,100559.39
2019-04-27T09:17:29.164Z,100569.31
2019-04-27T09:20:02.666Z,100565.25
2019-04-27T09:22:39.181Z,100562.63
2019-04-27T09:25:11.840Z,100555.17
2019-04-27T09:27:43.589Z,100548.29
2019-04-27T09:30:15.457Z,100537.20
2019-04-27T09:32:46.779Z,100540.64
2019-04-27T09:35:19.612Z,100551.98
2019-04-27T09:37:52.543Z,100566.70
2019-04-27T09:40:26.619Z,100556.50
2019-04-27T09:42:59.489Z,100549.86
2019-04-27T09:45:31.221Z,100537.20
2019-04-27T09:48:02.625Z,100532.17
2019-04-27T09:50:36.110Z,100518.13
2019-04-27T09:53:10.642Z,100498.94
2019-04-27T09:55:44.742Z,100515.45
2019-04-27T09:58:18.391Z,100556.59
2019-04-27T10:00:49.622Z,100574.46
2019-04-27T10:03:20.607Z,100562.70
2019-04-27T10:05:51.864Z,100562.89
2019-04-27T10:08:23.384Z,100566.92
2019-04-27T10:10:56.531Z,100572.40
2019-04-27T10:13:27.594Z,100568.02
2019-04-27T10:15:58.982Z,100563.42
2019-04-27T10:18:31.808Z,100562.31
2019-04-27T10:21:06.373Z,100559.91
2019-04-27T10:23:46.860Z,100556.73
2019-04-27T10:26:18.191Z,100560.14
2019-04-27T10:28:50.415Z,100563.29
2019-04-27T10:31:23.095Z,100559.00
2019-04-27T10:33:55.976Z,100561.20
2019-04-27T10:36:29.236Z,100566.11
2019-04-27T10:39:01.031Z,100566.33
2019-04-27T10:41:36.957Z,100571.17
2019-04-27T10:44:14.093Z,100565.80
2019-04-27T10:46:45.975Z,100567.13
2019-04-27T10:49:18.861Z,100557.16
2019-04-27T10:51:55.782Z,100565.13
2019-04-27T10:54:28.082Z,100563.06
2019-04-27T10:56:59.573Z,100560.00
2019-04-27T10:59:30.851Z,100565.55
2019-04-27T11:02:01.894Z,100559.61
2019-04-27T11:04:36.002Z,100569.55
2019-04-27T11:07:09.068Z,100559.78
2019-04-27T11:09:40.163Z,100561.17
2019-04-27T11:12:11.357Z,100560.77
2019-04-27T11:14:42.891Z,100560.76
2019-04-27T11:17:16.298Z,100568.63
2019-04-27T11:19:47.845Z,100569.24
2019-04-27T11:22:20.004Z,100570.25
2019-04-27T11:24:51.947Z,100572.98
2019-04-27T11:27:39.044Z,100569.72
2019-04-27T11:30:19.581Z,100565.11
2019-04-27T11:32:56.632Z,100562.92
2019-04-27T11:35:29.949Z,100575.27
2019-04-27T11:38:01.863Z,100569.61
2019-04-27T11:40:33.593Z,100567.31
2019-04-27T11:43:06.031Z,100576.05
2019-04-27T11:45:37.936Z,100569.13
2019-04-27T11:48:08.982Z,100565.08
2019-04-27T11:50:41.108Z,100576.81
2019-04-27T11:53:21.980Z,100573.94
2019-04-27T11:55:46.366Z,100586.73
2019-04-27T11:58:17.437Z,100585.95
2019-04-27T12:00:48.329Z,100579.08
2019-04-27T12:03:20.474Z,100587.79
2019-04-27T12:05:51.995Z,100585.92
2019-04-27T12:08:24.274Z,100582.77
2019-04-27T12:10:55.722Z,100573.83
2019-04-27T12:13:27.136Z,100579.10
2019-04-27T12:15:58.552Z,100576.78
2019-04-27T12:18:29.831Z,100572.39
2019-04-27T12:21:06.283Z,100575.79
2019-04-27T12:23:41.392Z,100575.11
2019-04-27T12:26:15.930Z,100568.56
2019-04-27T12:28:49.953Z,100578.17
2019-04-27T12:31:22.716Z,100573.80
2019-04-27T12:33:56.041Z,100576.48
2019-04-27T12:36:27.432Z,100571.52
2019-04-27T12:38:59.030Z,100567.39
2019-04-27T12:41:30.795Z,100573.71
2019-04-27T12:44:02.125Z,100574.56
2019-04-27T12:46:35.085Z,100574.72
2019-04-27T12:49:08.417Z,100572.00
2019-04-27T12:51:41.064Z,100583.07
2019-04-27T12:54:16.234Z,100579.23
2019-04-27T12:56:48.973Z,100577.18
2019-04-27T12:59:21.575Z,100577.00
2019-04-27T13:01:53.214Z,100576.75
2019-04-27T13:04:25.015Z,100570.53
2019-04-27T13:06:57.355Z,100566.76
2019-04-27T13:09:28.576Z,100568.34
2019-04-27T13:12:00.122Z,100568.38
2019-04-27T13:14:36.522Z,100573.80
2019-04-27T13:17:10.614Z,100570.77
2019-04-27T13:19:41.630Z,100575.47
2019-04-27T13:22:12.701Z,100577.91
2019-04-27T13:24:45.912Z,100575.11
2019-04-27T13:27:17.667Z,100582.09
2019-04-27T13:29:49.115Z,100580.35
2019-04-27T13:32:20.354Z,100583.52
2019-04-27T13:34:51.715Z,100586.54
2019-04-27T13:37:27.372Z,100581.23
2019-04-27T13:40:07.065Z,100580.71
2019-04-27T13:42:37.042Z,100582.57
2019-04-27T13:45:10.377Z,100579.61
2019-04-27T13:47:43.151Z,100578.39
2019-04-27T13:50:16.114Z,100578.16
2019-04-27T13:52:48.915Z,100575.16
2019-04-27T13:55:24.115Z,100575.02
2019-04-27T13:57:57.512Z,100578.09
2019-04-27T14:00:30.568Z,100572.33
2019-04-27T14:03:01.625Z,100566.89
2019-04-27T14:05:33.270Z,100568.17
2019-04-27T14:08:05.326Z,100559.94
2019-04-27T14:10:38.269Z,100560.97
2019-04-27T14:13:11.043Z,100560.91
2019-04-27T14:15:43.580Z,100556.31
2019-04-27T14:18:15.796Z,100555.29
2019-04-27T14:20:48.718Z,100559.08
2019-04-27T14:23:23.328Z,100563.27
2019-04-27T14:25:56.100Z,100561.48
2019-04-27T14:28:28.972Z,100560.56
2019-04-27T14:31:01.139Z,100564.30
2019-04-27T14:33:32.899Z,100567.26
2019-04-27T14:36:04.417Z,100562.27
2019-04-27T14:38:36.579Z,100561.02
2019-04-27T14:41:09.061Z,100560.81
2019-04-27T14:43:42.031Z,100556.54
2019-04-27T14:46:13.419Z,100551.63
2019-04-27T14:48:44.958Z,100551.80
2019-04-27T14:51:18.636Z,100559.08
2019-04-27T14:53:50.338Z,100559.00
2019-04-27T14:56:24.789Z,100551.81
2019-04-27T14:58:55.444Z,100551.34
2019-04-27T15:01:29.051Z,100556.23
2019-04-27T15:04:04.306Z,100561.25
2019-04-27T15:06:45.635Z,100554.58
2019-04-27T15:09:20.860Z,100555.27
2019-04-27T15:11:53.394Z,100549.63
2019-04-27T15:14:25.437Z,100562.11
2019-04-27T15:16:59.266Z,100564.38
2019-04-27T15:22:20.848Z,100557.12
2019-04-27T15:25:07.701Z,100557.58
2019-04-27T15:27:34.313Z,100562.99
2019-04-27T15:30:05.804Z,100566.50
2019-04-27T15:32:38.042Z,100561.35
2019-04-27T15:35:10.506Z,100558.52
2019-04-27T15:37:43.735Z,100553.28
2019-04-27T15:40:18.563Z,100557.71
2019-04-27T15:42:52.887Z,100560.46
2019-04-27T15:45:24.611Z,100558.05
2019-04-27T15:47:55.826Z,100558.95
2019-04-27T15:50:30.289Z,100562.50
2019-04-27T15:53:03.021Z,100565.80
2019-04-27T15:55:37.381Z,100561.77
2019-04-27T15:58:08.218Z,100557.81
2019-04-27T16:00:40.074Z,100556.38
2019-04-27T16:03:11.545Z,100560.53
2019-04-27T16:05:43.266Z,100558.36
2019-04-27T16:08:15.624Z,100557.83
2019-04-27T16:10:48.836Z,100547.91
2019-04-27T16:13:21.196Z,100546.59
2019-04-27T16:15:54.097Z,100533.88
2019-04-27T16:18:31.125Z,100534.03
2019-04-27T16:21:02.896Z,100536.33
2019-04-27T16:23:33.712Z,100542.03
2019-04-27T16:26:10.938Z,100546.81
2019-04-27T16:28:38.944Z,100543.25
2019-04-27T16:31:10.587Z,100528.81
2019-04-27T16:33:41.960Z,100518.55
2019-04-27T16:36:13.718Z,100522.36
2019-04-27T16:38:48.102Z,100520.67
2019-04-27T16:41:19.801Z,100517.64
2019-04-27T16:43:51.180Z,100514.72
2019-04-27T16:46:22.402Z,100518.73
2019-04-27T16:48:54.399Z,100513.39
2019-04-27T16:51:29.758Z,100509.81
2019-04-27T16:54:00.295Z,100509.91
2019-04-27T16:56:32.119Z,100518.91
2019-04-27T16:59:25.817Z,100524.11
2019-04-27T17:01:40.064Z,100518.75
2019-04-27T17:04:11.326Z,100514.38
2019-04-27T17:06:45.982Z,100513.58
2019-04-27T17:09:15.608Z,100513.77
2019-04-27T17:11:50.272Z,100519.75
2019-04-27T17:14:26.540Z,100514.20
2019-04-27T17:16:58.157Z,100519.02
2019-04-27T17:19:31.271Z,100527.34
2019-04-27T17:22:03.190Z,100528.65
2019-04-27T17:24:43.912Z,100530.92
2019-04-27T17:27:11.709Z,100539.25
2019-04-27T17:29:50.039Z,100538.02
2019-04-27T17:32:25.537Z,100534.41
2019-04-27T17:35:05.650Z,100533.67
2019-04-27T17:37:38.300Z,100539.52
2019-04-27T17:40:09.975Z,100535.37
2019-04-27T17:42:42.209Z,100535.23
2019-04-27T17:45:13.982Z,100543.30
2019-04-27T17:47:45.167Z,100545.59
2019-04-27T17:50:20.066Z,100549.78
2019-04-27T17:52:54.859Z,100538.23
2019-04-27T17:55:24.243Z,100531.84
2019-04-27T17:58:00.505Z,100531.38
2019-04-27T18:00:28.378Z,100526.58
2019-04-27T18:02:59.238Z,100527.95
2019-04-27T18:05:30.158Z,100522.52
2019-04-27T18:08:01.298Z,100521.12
2019-04-27T18:10:33.137Z,100532.30
2019-04-27T18:13:04.577Z,100537.65
2019-04-27T18:15:36.324Z,100546.59
2019-04-27T18:18:09.344Z,100550.46
2019-04-27T18:20:41.256Z,100547.71
2019-04-27T18:23:15.093Z,100549.81
2019-04-27T18:25:49.998Z,100554.39
2019-04-27T18:28:22.522Z,100560.53
2019-04-27T18:30:55.219Z,100551.23
2019-04-27T18:33:28.350Z,100558.14
2019-04-27T18:36:05.158Z,100556.48
2019-04-27T18:38:39.227Z,100562.93
2019-04-27T18:41:22.818Z,100560.88
2019-04-27T18:44:11.212Z,100565.55
2019-04-27T18:46:53.592Z,100571.66
2019-04-27T18:49:30.218Z,100575.83
2019-04-27T18:52:04.439Z,100591.06
2019-04-27T18:54:38.117Z,100590.30
2019-04-27T18:57:10.626Z,100597.47
2019-04-27T18:59:41.348Z,100593.01
2019-04-27T19:02:12.247Z,100598.97
2019-04-27T19:04:42.493Z,100602.05
2019-04-27T19:07:13.103Z,100597.81
2019-04-27T19:09:43.912Z,100606.47
2019-04-27T19:12:15.737Z,100612.31
2019-04-27T19:14:49.876Z,100620.45
2019-04-27T19:17:23.359Z,100618.52
2019-04-27T19:19:57.898Z,100617.55
2019-04-27T19:22:29.992Z,100618.05
2019-04-27T19:25:03.116Z,100610.56
2019-04-27T19:27:39.181Z,100617.98
2019-04-27T19:30:13.868Z,100618.23
2019-04-27T19:32:47.133Z,100618.45
2019-04-27T19:35:20.042Z,100608.69
2019-04-27T19:37:51.523Z,100602.50
2019-04-27T19:40:22.855Z,100601.71
2019-04-27T19:42:54.698Z,100599.35
2019-04-27T19:45:26.370Z,100603.91
2019-04-27T19:47:58.559Z,100605.64
2019-04-27T19:50:33.018Z,100614.70
2019-04-27T19:53:09.667Z,100612.25
2019-04-27T19:55:42.960Z,100618.36
2019-04-27T19:58:19.657Z,100618.45
2019-04-27T20:00:52.002Z,100625.45
2019-04-27T20:03:25.835Z,100625.40
2019-04-27T20:05:56.852Z,100622.69
2019-04-27T20:08:30.514Z,100622.32
2019-04-27T20:11:05.821Z,100628.30
2019-04-27T20:13:40.757Z,100628.08
2019-04-27T20:16:12.563Z,100632.75
2019-04-27T20:18:44.338Z,100630.42
2019-04-27T20:21:15.940Z,100630.42
2019-04-27T20:24:01.579Z,100630.48
2019-04-27T20:26:34.786Z,100639.47
2019-04-27T20:29:12.497Z,100638.39
2019-04-27T20:31:48.516Z,100638.26
2019-04-27T20:34:20.868Z,100636.34
2019-04-27T20:36:53.017Z,100638.59
2019-04-27T20:39:24.157Z,100642.86
2019-04-27T20:41:56.079Z,100652.46
2019-04-27T20:44:27.864Z,100654.09
2019-04-27T20:47:01.157Z,100647.80
2019-04-27T20:49:33.700Z,100651.29
2019-04-27T20:52:06.758Z,100652.27
2019-04-27T20:54:39.078Z,100653.63
2019-04-27T20:57:11.561Z,100648.62
2019-04-27T20:59:43.519Z,100648.55
2019-04-27T21:02:16.690Z,100653.84
2019-04-27T21:04:49.280Z,100666.12
2019-04-27T21:07:23.179Z,100668.35
2019-04-27T21:09:55.061Z,100661.69
2019-04-27T21:12:26.099Z,100659.36
2019-04-27T21:14:57.281Z,100656.01
2019-04-27T21:17:30.900Z,100652.80
2019-04-27T21:20:04.701Z,100647.22
2019-04-27T21:22:36.613Z,100643.58
2019-04-27T21:25:09.041Z,100637.06
2019-04-27T21:27:41.073Z,100637.84
2019-04-27T21:30:12.596Z,100641.59
2019-04-27T21:32:44.162Z,100640.43
2019-04-27T21:35:15.321Z,100640.28
2019-04-27T21:37:46.412Z,100635.20
2019-04-27T21:40:21.314Z,100628.31
2019-04-27T21:42:53.487Z,100629.75
2019-04-27T21:45:25.676Z,100628.95
2019-04-27T21:47:56.896Z,100620.44
2019-04-27T21:50:28.498Z,100622.36
2019-04-27T21:53:00.593Z,100614.64
2019-04-27T21:55:34.202Z,100614.91
2019-04-27T21:58:05.396Z,100622.69
2019-04-27T22:00:39.717Z,100627.39
2019-04-27T22:03:14.011Z,100629.81
2019-04-27T22:05:45.309Z,100627.69
2019-04-27T22:08:17.425Z,100634.52
2019-04-27T22:10:49.199Z,100632.33
2019-04-27T22:13:22.353Z,100636.95
2019-04-27T22:15:54.016Z,100641.80
2019-04-27T22:18:27.159Z,100639.41
2019-04-27T22:20:59.036Z,100642.95
2019-04-27T22:23:31.550Z,100638.13
2019-04-27T22:26:03.678Z,100639.16
2019-04-27T22:28:46.116Z,100631.73
2019-04-27T22:31:12.378Z,100632.34
2019-04-27T22:33:44.676Z,100635.68
2019-04-27T22:36:16.836Z,100641.30
2019-04-27T22:38:49.018Z,100637.00
2019-04-27T22:41:22.016Z,100638.91
2019-04-27T22:43:55.677Z,100641.92
2019-04-27T22:46:30.725Z,100642.19
2019-04-27T22:49:02.038Z,100646.55
2019-04-27T22:51:34.254Z,100640.23
2019-04-27T22:54:06.389Z,100642.27
2019-04-27T22:56:39.025Z,100641.91
2019-04-27T22:59:12.137Z,100642.64
2019-04-27T23:01:44.987Z,100638.86
2019-04-27T23:04:18.422Z,100649.77
2019-04-27T23:06:50.504Z,100638.95
2019-04-27T23:09:23.388Z,100647.59
2019-04-27T23:11:55.327Z,100641.56
2019-04-27T23:14:27.391Z,100645.72
2019-04-27T23:17:03.031Z,100642.66
2019-04-27T23:19:33.440Z,100649.05
2019-04-27T23:22:06.019Z,100655.39
2019-04-27T23:24:37.408Z,100655.92
2019-04-27T23:27:11.035Z,100651.48
2019-04-27T23:29:42.282Z,100648.70
2019-04-27T23:32:14.897Z,100646.83
2019-04-27T23:34:46.258Z,100639.59
2019-04-27T23:37:18.084Z,100644.13
2019-04-27T23:39:49.329Z,100638.13
2019-04-27T23:42:21.690Z,100625.58
2019-04-27T23:44:52.815Z,100626.88
2019-04-27T23:47:24.719Z,100617.42
2019-04-27T23:49:56.272Z,100624.09
2019-04-27T23:52:28.937Z,100628.24
2019-04-27T23:55:02.284Z,100629.01
2019-04-27T23:57:33.723Z,100625.33
